sensor_id;sensor_type;location;lat;lon;timestamp;temperature;humidity
69418;DHT22;56610;48.872;2.400;2023-02-28T00:00:22;7.80;93.00
69418;DHT22;56610;48.872;2.400;2023-02-28T00:02:50;7.70;93.10
69418;DHT22;56610;48.872;2.400;2023-02-28T00:05:19;7.50;93.40
69418;DHT22;56610;48.872;2.400;2023-02-28T00:07:46;7.20;93.50
69418;DHT22;56610;48.872;2.400;2023-02-28T00:10:14;7.30;93.60
69418;DHT22;56610;48.872;2.400;2023-02-28T00:12:40;7.50;93.50
69418;DHT22;56610;48.872;2.400;2023-02-28T00:15:10;7.50;93.50
69418;DHT22;56610;48.872;2.400;2023-02-28T00:17:37;7.50;93.30
69418;DHT22;56610;48.872;2.400;2023-02-28T00:20:05;7.40;93.40
69418;DHT22;56610;48.872;2.400;2023-02-28T00:22:39;7.50;93.60
69418;DHT22;56610;48.872;2.400;2023-02-28T00:25:05;7.30;93.30
69418;DHT22;56610;48.872;2.400;2023-02-28T00:27:32;7.30;93.50
69418;DHT22;56610;48.872;2.400;2023-02-28T00:29:58;7.20;93.80
69418;DHT22;56610;48.872;2.400;2023-02-28T00:32:24;7.00;94.00
69418;DHT22;56610;48.872;2.400;2023-02-28T00:34:50;7.00;93.90
69418;DHT22;56610;48.872;2.400;2023-02-28T00:37:16;7.10;93.80
69418;DHT22;56610;48.872;2.400;2023-02-28T00:39:41;7.30;93.80
69418;DHT22;56610;48.872;2.400;2023-02-28T00:42:07;7.50;93.70
69418;DHT22;56610;48.872;2.400;2023-02-28T00:44:33;7.50;93.50
69418;DHT22;56610;48.872;2.400;2023-02-28T00:46:59;7.60;93.30
69418;DHT22;56610;48.872;2.400;2023-02-28T00:49:26;7.60;93.40
69418;DHT22;56610;48.872;2.400;2023-02-28T00:51:53;7.70;93.30
69418;DHT22;56610;48.872;2.400;2023-02-28T00:54:19;7.80;93.10
69418;DHT22;56610;48.872;2.400;2023-02-28T00:56:45;7.70;93.10
69418;DHT22;56610;48.872;2.400;2023-02-28T00:59:12;7.70;92.90
69418;DHT22;56610;48.872;2.400;2023-02-28T01:01:37;7.80;93.00
69418;DHT22;56610;48.872;2.400;2023-02-28T01:04:03;7.70;93.00
69418;DHT22;56610;48.872;2.400;2023-02-28T01:06:30;7.60;93.00
69418;DHT22;56610;48.872;2.400;2023-02-28T01:08:55;7.60;93.00
69418;DHT22;56610;48.872;2.400;2023-02-28T01:11:21;7.70;93.10
69418;DHT22;56610;48.872;2.400;2023-02-28T01:13:47;7.60;93.10
69418;DHT22;56610;48.872;2.400;2023-02-28T01:16:16;7.60;93.00
69418;DHT22;56610;48.872;2.400;2023-02-28T01:18:42;7.90;93.00
69418;DHT22;56610;48.872;2.400;2023-02-28T01:21:12;7.90;92.80
69418;DHT22;56610;48.872;2.400;2023-02-28T01:23:39;7.90;92.60
69418;DHT22;56610;48.872;2.400;2023-02-28T01:26:14;7.80;92.70
69418;DHT22;56610;48.872;2.400;2023-02-28T01:28:40;8.00;92.80
69418;DHT22;56610;48.872;2.400;2023-02-28T01:31:06;8.00;92.50
69418;DHT22;56610;48.872;2.400;2023-02-28T01:33:32;8.10;92.40
69418;DHT22;56610;48.872;2.400;2023-02-28T01:35:59;7.90;92.50
69418;DHT22;56610;48.872;2.400;2023-02-28T01:38:25;7.90;92.50
69418;DHT22;56610;48.872;2.400;2023-02-28T01:40:52;7.70;92.40
69418;DHT22;56610;48.872;2.400;2023-02-28T01:43:24;7.60;92.70
69418;DHT22;56610;48.872;2.400;2023-02-28T01:45:51;7.60;92.70
69418;DHT22;56610;48.872;2.400;2023-02-28T01:48:18;7.50;92.70
69418;DHT22;56610;48.872;2.400;2023-02-28T01:50:45;7.40;92.90
69418;DHT22;56610;48.872;2.400;2023-02-28T01:53:19;7.50;92.60
69418;DHT22;56610;48.872;2.400;2023-02-28T01:55:49;7.50;92.80
69418;DHT22;56610;48.872;2.400;2023-02-28T01:58:17;7.40;93.00
69418;DHT22;56610;48.872;2.400;2023-02-28T02:00:43;7.50;92.80
69418;DHT22;56610;48.872;2.400;2023-02-28T02:03:12;7.50;92.80
69418;DHT22;56610;48.872;2.400;2023-02-28T02:05:39;7.50;92.80
69418;DHT22;56610;48.872;2.400;2023-02-28T02:08:09;7.20;93.10
69418;DHT22;56610;48.872;2.400;2023-02-28T02:10:44;7.20;93.00
69418;DHT22;56610;48.872;2.400;2023-02-28T02:19:01;6.80;93.50
69418;DHT22;56610;48.872;2.400;2023-02-28T02:30:17;6.90;93.60
69418;DHT22;56610;48.872;2.400;2023-02-28T02:35:40;6.70;93.40
69418;DHT22;56610;48.872;2.400;2023-02-28T02:43:49;6.40;93.70
69418;DHT22;56610;48.872;2.400;2023-02-28T02:46:29;6.40;93.80
69418;DHT22;56610;48.872;2.400;2023-02-28T02:48:58;6.40;93.80
69418;DHT22;56610;48.872;2.400;2023-02-28T02:51:27;6.60;93.50
69418;DHT22;56610;48.872;2.400;2023-02-28T02:54:13;6.70;93.40
69418;DHT22;56610;48.872;2.400;2023-02-28T02:56:41;6.90;93.10
69418;DHT22;56610;48.872;2.400;2023-02-28T02:59:10;6.70;92.70
69418;DHT22;56610;48.872;2.400;2023-02-28T03:01:37;6.70;93.00
69418;DHT22;56610;48.872;2.400;2023-02-28T03:04:24;6.80;92.90
69418;DHT22;56610;48.872;2.400;2023-02-28T03:06:51;7.00;92.60
69418;DHT22;56610;48.872;2.400;2023-02-28T03:09:21;6.90;92.60
69418;DHT22;56610;48.872;2.400;2023-02-28T03:11:47;6.90;92.60
69418;DHT22;56610;48.872;2.400;2023-02-28T03:16:59;6.60;92.70
69418;DHT22;56610;48.872;2.400;2023-02-28T03:30:24;6.70;92.60
69418;DHT22;56610;48.872;2.400;2023-02-28T03:33:00;6.90;92.10
69418;DHT22;56610;48.872;2.400;2023-02-28T03:35:39;6.90;92.00
69418;DHT22;56610;48.872;2.400;2023-02-28T03:38:15;6.90;91.90
69418;DHT22;56610;48.872;2.400;2023-02-28T03:40:48;6.90;92.00
69418;DHT22;56610;48.872;2.400;2023-02-28T03:43:19;6.60;91.90
69418;DHT22;56610;48.872;2.400;2023-02-28T03:45:48;6.60;92.00
69418;DHT22;56610;48.872;2.400;2023-02-28T03:48:19;6.60;92.20
69418;DHT22;56610;48.872;2.400;2023-02-28T03:50:49;6.50;91.90
69418;DHT22;56610;48.872;2.400;2023-02-28T03:55:49;6.40;92.10
69418;DHT22;56610;48.872;2.400;2023-02-28T03:58:27;6.30;92.30
69418;DHT22;56610;48.872;2.400;2023-02-28T04:01:08;6.30;92.20
69418;DHT22;56610;48.872;2.400;2023-02-28T04:03:36;6.30;92.30
69418;DHT22;56610;48.872;2.400;2023-02-28T04:06:02;6.20;92.30
69418;DHT22;56610;48.872;2.400;2023-02-28T04:08:29;6.30;92.30
69418;DHT22;56610;48.872;2.400;2023-02-28T04:11:04;6.40;92.00
69418;DHT22;56610;48.872;2.400;2023-02-28T04:13:31;6.40;92.10
69418;DHT22;56610;48.872;2.400;2023-02-28T04:15:56;6.60;92.30
69418;DHT22;56610;48.872;2.400;2023-02-28T04:18:22;6.80;92.00
69418;DHT22;56610;48.872;2.400;2023-02-28T04:20:48;6.90;91.70
69418;DHT22;56610;48.872;2.400;2023-02-28T04:23:13;7.00;91.80
69418;DHT22;56610;48.872;2.400;2023-02-28T04:25:39;7.00;91.70
69418;DHT22;56610;48.872;2.400;2023-02-28T04:28:06;7.20;91.70
69418;DHT22;56610;48.872;2.400;2023-02-28T04:30:31;7.40;91.50
69418;DHT22;56610;48.872;2.400;2023-02-28T04:33:01;7.60;91.30
69418;DHT22;56610;48.872;2.400;2023-02-28T04:35:26;7.60;90.90
69418;DHT22;56610;48.872;2.400;2023-02-28T04:37:52;7.70;91.10
69418;DHT22;56610;48.872;2.400;2023-02-28T04:40:17;7.60;91.00
69418;DHT22;56610;48.872;2.400;2023-02-28T04:42:43;7.60;91.10
69418;DHT22;56610;48.872;2.400;2023-02-28T04:45:09;7.60;91.00
69418;DHT22;56610;48.872;2.400;2023-02-28T04:47:36;7.70;91.10
69418;DHT22;56610;48.872;2.400;2023-02-28T04:50:04;7.60;91.00
69418;DHT22;56610;48.872;2.400;2023-02-28T04:52:30;7.60;91.10
69418;DHT22;56610;48.872;2.400;2023-02-28T04:54:55;7.50;91.10
69418;DHT22;56610;48.872;2.400;2023-02-28T04:57:21;7.70;91.30
69418;DHT22;56610;48.872;2.400;2023-02-28T04:59:46;7.60;91.20
69418;DHT22;56610;48.872;2.400;2023-02-28T05:02:12;7.30;91.30
69418;DHT22;56610;48.872;2.400;2023-02-28T05:04:38;7.10;91.40
69418;DHT22;56610;48.872;2.400;2023-02-28T05:07:03;6.90;91.70
69418;DHT22;56610;48.872;2.400;2023-02-28T05:09:29;7.10;91.60
69418;DHT22;56610;48.872;2.400;2023-02-28T05:11:55;7.10;91.60
69418;DHT22;56610;48.872;2.400;2023-02-28T05:14:21;7.20;91.50
69418;DHT22;56610;48.872;2.400;2023-02-28T05:16:47;7.20;91.50
69418;DHT22;56610;48.872;2.400;2023-02-28T05:19:12;7.20;91.50
69418;DHT22;56610;48.872;2.400;2023-02-28T05:21:49;7.20;91.60
69418;DHT22;56610;48.872;2.400;2023-02-28T05:24:16;7.10;91.40
69418;DHT22;56610;48.872;2.400;2023-02-28T05:26:48;7.20;91.40
69418;DHT22;56610;48.872;2.400;2023-02-28T05:29:14;7.00;91.50
69418;DHT22;56610;48.872;2.400;2023-02-28T05:31:40;6.90;91.80
69418;DHT22;56610;48.872;2.400;2023-02-28T05:34:05;7.10;91.70
69418;DHT22;56610;48.872;2.400;2023-02-28T05:36:31;7.30;91.70
69418;DHT22;56610;48.872;2.400;2023-02-28T05:38:57;7.40;91.70
69418;DHT22;56610;48.872;2.400;2023-02-28T05:41:22;7.50;91.50
69418;DHT22;56610;48.872;2.400;2023-02-28T05:43:48;7.40;91.60
69418;DHT22;56610;48.872;2.400;2023-02-28T05:46:14;7.50;91.50
69418;DHT22;56610;48.872;2.400;2023-02-28T05:48:41;7.40;91.70
69418;DHT22;56610;48.872;2.400;2023-02-28T05:51:08;7.20;91.80
69418;DHT22;56610;48.872;2.400;2023-02-28T05:53:35;7.10;92.00
69418;DHT22;56610;48.872;2.400;2023-02-28T05:56:05;6.80;92.20
69418;DHT22;56610;48.872;2.400;2023-02-28T05:58:31;6.40;92.80
69418;DHT22;56610;48.872;2.400;2023-02-28T06:01:00;6.30;93.20
69418;DHT22;56610;48.872;2.400;2023-02-28T06:03:27;6.00;93.50
69418;DHT22;56610;48.872;2.400;2023-02-28T06:05:53;5.90;93.90
69418;DHT22;56610;48.872;2.400;2023-02-28T06:08:19;5.60;94.40
69418;DHT22;56610;48.872;2.400;2023-02-28T06:10:44;5.50;94.60
69418;DHT22;56610;48.872;2.400;2023-02-28T06:13:10;5.50;94.70
69418;DHT22;56610;48.872;2.400;2023-02-28T06:15:38;5.50;95.00
69418;DHT22;56610;48.872;2.400;2023-02-28T06:18:04;5.50;95.30
69418;DHT22;56610;48.872;2.400;2023-02-28T06:20:30;5.60;95.10
69418;DHT22;56610;48.872;2.400;2023-02-28T06:22:57;5.40;95.40
69418;DHT22;56610;48.872;2.400;2023-02-28T06:25:24;5.40;95.60
69418;DHT22;56610;48.872;2.400;2023-02-28T06:27:49;5.30;95.70
69418;DHT22;56610;48.872;2.400;2023-02-28T06:30:15;5.20;96.10
69418;DHT22;56610;48.872;2.400;2023-02-28T06:32:41;5.20;96.20
69418;DHT22;56610;48.872;2.400;2023-02-28T06:35:07;5.20;96.20
69418;DHT22;56610;48.872;2.400;2023-02-28T06:37:34;5.30;96.50
69418;DHT22;56610;48.872;2.400;2023-02-28T06:40:00;5.10;96.40
69418;DHT22;56610;48.872;2.400;2023-02-28T06:42:25;5.10;96.70
69418;DHT22;56610;48.872;2.400;2023-02-28T06:44:57;5.00;96.80
69418;DHT22;56610;48.872;2.400;2023-02-28T06:47:23;5.00;97.10
69418;DHT22;56610;48.872;2.400;2023-02-28T06:49:49;4.90;97.40
69418;DHT22;56610;48.872;2.400;2023-02-28T06:52:15;4.90;97.70
69418;DHT22;56610;48.872;2.400;2023-02-28T06:54:40;4.80;97.60
69418;DHT22;56610;48.872;2.400;2023-02-28T06:57:06;4.80;97.70
69418;DHT22;56610;48.872;2.400;2023-02-28T06:59:32;4.60;98.00
69418;DHT22;56610;48.872;2.400;2023-02-28T07:01:57;4.70;98.10
69418;DHT22;56610;48.872;2.400;2023-02-28T07:04:23;4.60;98.30
69418;DHT22;56610;48.872;2.400;2023-02-28T07:06:49;4.60;98.70
69418;DHT22;56610;48.872;2.400;2023-02-28T07:09:15;4.50;98.60
69418;DHT22;56610;48.872;2.400;2023-02-28T07:11:43;4.50;98.90
69418;DHT22;56610;48.872;2.400;2023-02-28T07:14:09;4.30;99.50
69418;DHT22;56610;48.872;2.400;2023-02-28T07:16:35;4.30;99.40
69418;DHT22;56610;48.872;2.400;2023-02-28T07:19:01;4.20;99.70
69418;DHT22;56610;48.872;2.400;2023-02-28T07:21:27;4.30;99.90
69418;DHT22;56610;48.872;2.400;2023-02-28T07:23:52;4.30;99.80
69418;DHT22;56610;48.872;2.400;2023-02-28T07:26:19;4.30;99.90
69418;DHT22;56610;48.872;2.400;2023-02-28T07:28:46;4.30;99.90
69418;DHT22;56610;48.872;2.400;2023-02-28T07:31:13;4.30;99.90
69418;DHT22;56610;48.872;2.400;2023-02-28T07:33:39;4.30;99.90
69418;DHT22;56610;48.872;2.400;2023-02-28T07:36:25;4.30;99.90
69418;DHT22;56610;48.872;2.400;2023-02-28T07:38:51;4.30;99.90
69418;DHT22;56610;48.872;2.400;2023-02-28T07:41:19;4.40;99.90
69418;DHT22;56610;48.872;2.400;2023-02-28T07:43:45;4.50;99.90
69418;DHT22;56610;48.872;2.400;2023-02-28T07:46:13;4.50;99.90
69418;DHT22;56610;48.872;2.400;2023-02-28T07:48:41;4.70;99.90
69418;DHT22;56610;48.872;2.400;2023-02-28T07:51:07;4.80;99.90
69418;DHT22;56610;48.872;2.400;2023-02-28T07:53:32;4.90;99.90
69418;DHT22;56610;48.872;2.400;2023-02-28T07:55:59;5.10;99.80
69418;DHT22;56610;48.872;2.400;2023-02-28T07:58:27;5.10;99.70
69418;DHT22;56610;48.872;2.400;2023-02-28T08:00:53;5.10;99.70
69418;DHT22;56610;48.872;2.400;2023-02-28T08:03:19;5.30;99.70
69418;DHT22;56610;48.872;2.400;2023-02-28T08:05:45;5.30;99.40
69418;DHT22;56610;48.872;2.400;2023-02-28T08:08:11;5.20;99.50
69418;DHT22;56610;48.872;2.400;2023-02-28T08:10:37;5.20;99.70
69418;DHT22;56610;48.872;2.400;2023-02-28T08:13:03;5.20;99.70
69418;DHT22;56610;48.872;2.400;2023-02-28T08:15:29;5.20;99.90
69418;DHT22;56610;48.872;2.400;2023-02-28T08:17:54;5.20;99.90
69418;DHT22;56610;48.872;2.400;2023-02-28T08:20:22;5.30;99.60
69418;DHT22;56610;48.872;2.400;2023-02-28T08:22:48;5.40;99.70
69418;DHT22;56610;48.872;2.400;2023-02-28T08:25:13;5.40;99.60
69418;DHT22;56610;48.872;2.400;2023-02-28T08:27:39;5.40;99.40
69418;DHT22;56610;48.872;2.400;2023-02-28T08:30:05;5.30;99.30
69418;DHT22;56610;48.872;2.400;2023-02-28T08:32:32;5.30;99.80
69418;DHT22;56610;48.872;2.400;2023-02-28T08:34:58;5.30;99.60
69418;DHT22;56610;48.872;2.400;2023-02-28T08:37:24;5.30;99.60
69418;DHT22;56610;48.872;2.400;2023-02-28T08:39:50;5.40;99.70
69418;DHT22;56610;48.872;2.400;2023-02-28T08:42:16;5.30;99.50
69418;DHT22;56610;48.872;2.400;2023-02-28T08:44:41;5.30;99.70
69418;DHT22;56610;48.872;2.400;2023-02-28T08:47:07;5.30;99.50
69418;DHT22;56610;48.872;2.400;2023-02-28T08:49:33;5.30;99.70
69418;DHT22;56610;48.872;2.400;2023-02-28T08:51:59;5.40;99.60
69418;DHT22;56610;48.872;2.400;2023-02-28T08:54:24;5.30;99.60
69418;DHT22;56610;48.872;2.400;2023-02-28T08:56:50;5.10;99.70
69418;DHT22;56610;48.872;2.400;2023-02-28T08:59:16;5.30;99.80
69418;DHT22;56610;48.872;2.400;2023-02-28T09:01:41;5.30;99.60
69418;DHT22;56610;48.872;2.400;2023-02-28T09:04:09;5.40;99.30
69418;DHT22;56610;48.872;2.400;2023-02-28T09:06:36;5.30;99.40
69418;DHT22;56610;48.872;2.400;2023-02-28T09:09:01;5.40;99.20
69418;DHT22;56610;48.872;2.400;2023-02-28T09:11:29;5.40;99.10
69418;DHT22;56610;48.872;2.400;2023-02-28T09:13:55;5.50;99.30
69418;DHT22;56610;48.872;2.400;2023-02-28T09:16:21;5.40;99.30
69418;DHT22;56610;48.872;2.400;2023-02-28T09:18:47;5.50;99.10
69418;DHT22;56610;48.872;2.400;2023-02-28T09:21:15;5.70;99.00
69418;DHT22;56610;48.872;2.400;2023-02-28T09:23:41;5.90;98.90
69418;DHT22;56610;48.872;2.400;2023-02-28T09:26:11;6.10;98.30
69418;DHT22;56610;48.872;2.400;2023-02-28T09:28:38;6.20;98.10
69418;DHT22;56610;48.872;2.400;2023-02-28T09:31:03;6.10;98.00
69418;DHT22;56610;48.872;2.400;2023-02-28T09:33:30;6.10;97.90
69418;DHT22;56610;48.872;2.400;2023-02-28T09:36:00;6.20;97.80
69418;DHT22;56610;48.872;2.400;2023-02-28T09:38:26;6.00;97.70
69418;DHT22;56610;48.872;2.400;2023-02-28T09:40:56;6.10;97.70
69418;DHT22;56610;48.872;2.400;2023-02-28T09:43:25;6.20;97.70
69418;DHT22;56610;48.872;2.400;2023-02-28T09:46:10;6.20;97.50
69418;DHT22;56610;48.872;2.400;2023-02-28T09:48:42;6.10;97.20
69418;DHT22;56610;48.872;2.400;2023-02-28T09:53:42;6.40;97.30
69418;DHT22;56610;48.872;2.400;2023-02-28T09:56:11;6.40;96.80
69418;DHT22;56610;48.872;2.400;2023-02-28T09:59:04;6.50;96.90
69418;DHT22;56610;48.872;2.400;2023-02-28T10:01:37;6.60;96.70
69418;DHT22;56610;48.872;2.400;2023-02-28T10:07:10;6.70;96.90
69418;DHT22;56610;48.872;2.400;2023-02-28T10:09:46;6.80;95.80
69418;DHT22;56610;48.872;2.400;2023-02-28T10:12:16;6.80;96.10
69418;DHT22;56610;48.872;2.400;2023-02-28T10:14:45;6.80;96.10
69418;DHT22;56610;48.872;2.400;2023-02-28T10:17:22;6.80;96.30
69418;DHT22;56610;48.872;2.400;2023-02-28T10:25:21;6.80;95.40
69418;DHT22;56610;48.872;2.400;2023-02-28T10:27:47;6.70;95.50
69418;DHT22;56610;48.872;2.400;2023-02-28T10:30:13;6.80;95.30
69418;DHT22;56610;48.872;2.400;2023-02-28T10:32:47;6.80;95.20
69418;DHT22;56610;48.872;2.400;2023-02-28T10:35:26;6.80;95.10
69418;DHT22;56610;48.872;2.400;2023-02-28T10:38:00;6.80;95.30
69418;DHT22;56610;48.872;2.400;2023-02-28T10:40:35;6.90;95.00
69418;DHT22;56610;48.872;2.400;2023-02-28T10:43:03;6.80;94.90
69418;DHT22;56610;48.872;2.400;2023-02-28T10:45:34;6.80;95.00
69418;DHT22;56610;48.872;2.400;2023-02-28T10:50:51;7.10;93.70
69418;DHT22;56610;48.872;2.400;2023-02-28T10:55:58;7.20;94.10
69418;DHT22;56610;48.872;2.400;2023-02-28T10:58:26;7.30;93.20
69418;DHT22;56610;48.872;2.400;2023-02-28T11:00:52;7.40;92.70
69418;DHT22;56610;48.872;2.400;2023-02-28T11:03:28;7.40;92.40
69418;DHT22;56610;48.872;2.400;2023-02-28T11:05:54;7.50;91.90
69418;DHT22;56610;48.872;2.400;2023-02-28T11:08:20;7.70;91.80
69418;DHT22;56610;48.872;2.400;2023-02-28T11:10:48;7.80;90.40
69418;DHT22;56610;48.872;2.400;2023-02-28T11:13:20;8.00;90.60
69418;DHT22;56610;48.872;2.400;2023-02-28T11:15:54;8.00;90.50
69418;DHT22;56610;48.872;2.400;2023-02-28T11:18:29;8.10;90.70
69418;DHT22;56610;48.872;2.400;2023-02-28T11:20:57;7.90;90.80
69418;DHT22;56610;48.872;2.400;2023-02-28T11:23:24;8.10;90.80
69418;DHT22;56610;48.872;2.400;2023-02-28T11:25:52;8.20;90.80
69418;DHT22;56610;48.872;2.400;2023-02-28T11:28:35;8.40;90.80
69418;DHT22;56610;48.872;2.400;2023-02-28T11:33:53;8.50;90.10
69418;DHT22;56610;48.872;2.400;2023-02-28T11:36:20;8.60;89.40
69418;DHT22;56610;48.872;2.400;2023-02-28T11:38:48;8.50;90.00
69418;DHT22;56610;48.872;2.400;2023-02-28T11:49:46;9.80;84.90
69418;DHT22;56610;48.872;2.400;2023-02-28T11:54:51;10.30;84.40
69418;DHT22;56610;48.872;2.400;2023-02-28T11:57:47;10.30;83.80
69418;DHT22;56610;48.872;2.400;2023-02-28T12:06:06;9.80;83.40
69418;DHT22;56610;48.872;2.400;2023-02-28T12:11:45;9.90;83.90
69418;DHT22;56610;48.872;2.400;2023-02-28T12:28:06;11.70;80.30
69418;DHT22;56610;48.872;2.400;2023-02-28T12:30:41;11.90;79.60
69418;DHT22;56610;48.872;2.400;2023-02-28T12:33:16;12.00;78.50
69418;DHT22;56610;48.872;2.400;2023-02-28T12:35:59;11.70;78.80
69418;DHT22;56610;48.872;2.400;2023-02-28T12:38:34;11.50;78.10
69418;DHT22;56610;48.872;2.400;2023-02-28T12:43:40;10.90;79.10
69418;DHT22;56610;48.872;2.400;2023-02-28T12:46:44;10.50;80.00
69418;DHT22;56610;48.872;2.400;2023-02-28T12:49:09;10.40;80.70
69418;DHT22;56610;48.872;2.400;2023-02-28T12:51:36;10.30;80.50
69418;DHT22;56610;48.872;2.400;2023-02-28T12:54:14;10.20;81.20
69418;DHT22;56610;48.872;2.400;2023-02-28T12:57:24;10.20;81.20
69418;DHT22;56610;48.872;2.400;2023-02-28T13:00:03;10.10;80.10
69418;DHT22;56610;48.872;2.400;2023-02-28T13:10:48;10.90;79.60
69418;DHT22;56610;48.872;2.400;2023-02-28T13:13:28;11.10;79.70
69418;DHT22;56610;48.872;2.400;2023-02-28T13:20:55;11.60;79.10
69418;DHT22;56610;48.872;2.400;2023-02-28T13:26:09;11.60;77.80
69418;DHT22;56610;48.872;2.400;2023-02-28T13:31:23;11.40;77.70
69418;DHT22;56610;48.872;2.400;2023-02-28T13:36:28;11.20;78.30
69418;DHT22;56610;48.872;2.400;2023-02-28T14:05:38;14.00;70.70
69418;DHT22;56610;48.872;2.400;2023-02-28T14:08:24;14.10;69.90
69418;DHT22;56610;48.872;2.400;2023-02-28T14:11:08;14.40;70.20
69418;DHT22;56610;48.872;2.400;2023-02-28T14:13:43;14.40;69.30
69418;DHT22;56610;48.872;2.400;2023-02-28T14:16:44;14.20;68.80
69418;DHT22;56610;48.872;2.400;2023-02-28T14:19:21;13.90;68.80
69418;DHT22;56610;48.872;2.400;2023-02-28T14:33:14;12.50;69.90
69418;DHT22;56610;48.872;2.400;2023-02-28T14:36:10;12.60;69.20
69418;DHT22;56610;48.872;2.400;2023-02-28T14:41:21;12.40;69.00
69418;DHT22;56610;48.872;2.400;2023-02-28T14:43:56;11.80;69.40
69418;DHT22;56610;48.872;2.400;2023-02-28T14:46:26;11.70;69.90
69418;DHT22;56610;48.872;2.400;2023-02-28T14:48:52;11.50;69.50
69418;DHT22;56610;48.872;2.400;2023-02-28T14:51:21;11.60;70.20
69418;DHT22;56610;48.872;2.400;2023-02-28T14:53:50;11.70;70.30
69418;DHT22;56610;48.872;2.400;2023-02-28T14:56:26;12.00;70.30
69418;DHT22;56610;48.872;2.400;2023-02-28T14:58:54;12.40;69.90
69418;DHT22;56610;48.872;2.400;2023-02-28T15:01:22;12.70;68.90
69418;DHT22;56610;48.872;2.400;2023-02-28T15:03:57;12.80;68.60
69418;DHT22;56610;48.872;2.400;2023-02-28T15:06:23;12.90;68.80
69418;DHT22;56610;48.872;2.400;2023-02-28T15:09:07;13.00;68.80
69418;DHT22;56610;48.872;2.400;2023-02-28T15:11:33;13.20;68.10
69418;DHT22;56610;48.872;2.400;2023-02-28T15:14:00;13.20;67.60
69418;DHT22;56610;48.872;2.400;2023-02-28T15:16:30;12.70;67.60
69418;DHT22;56610;48.872;2.400;2023-02-28T15:19:01;12.60;67.90
69418;DHT22;56610;48.872;2.400;2023-02-28T15:21:31;12.30;68.00
69418;DHT22;56610;48.872;2.400;2023-02-28T15:24:06;12.20;68.60
69418;DHT22;56610;48.872;2.400;2023-02-28T15:26:41;12.40;68.30
69418;DHT22;56610;48.872;2.400;2023-02-28T15:29:23;12.60;67.80
69418;DHT22;56610;48.872;2.400;2023-02-28T15:32:04;13.00;67.60
69418;DHT22;56610;48.872;2.400;2023-02-28T15:34:36;13.10;67.20
69418;DHT22;56610;48.872;2.400;2023-02-28T15:37:23;13.20;66.90
69418;DHT22;56610;48.872;2.400;2023-02-28T15:39:50;13.10;66.60
69418;DHT22;56610;48.872;2.400;2023-02-28T15:42:21;13.00;66.60
69418;DHT22;56610;48.872;2.400;2023-02-28T15:44:49;12.80;67.30
69418;DHT22;56610;48.872;2.400;2023-02-28T15:47:23;12.70;67.50
69418;DHT22;56610;48.872;2.400;2023-02-28T15:50:12;12.70;68.00
69418;DHT22;56610;48.872;2.400;2023-02-28T15:52:40;12.50;68.40
69418;DHT22;56610;48.872;2.400;2023-02-28T15:55:10;12.40;67.80
69418;DHT22;56610;48.872;2.400;2023-02-28T15:57:39;12.30;68.10
69418;DHT22;56610;48.872;2.400;2023-02-28T16:00:11;12.30;67.40
69418;DHT22;56610;48.872;2.400;2023-02-28T16:02:38;11.90;67.30
69418;DHT22;56610;48.872;2.400;2023-02-28T16:07:38;11.50;68.30
69418;DHT22;56610;48.872;2.400;2023-02-28T16:10:05;11.60;68.00
69418;DHT22;56610;48.872;2.400;2023-02-28T16:12:32;11.60;68.10
69418;DHT22;56610;48.872;2.400;2023-02-28T16:14:59;11.50;68.20
69418;DHT22;56610;48.872;2.400;2023-02-28T16:17:31;11.60;68.90
69418;DHT22;56610;48.872;2.400;2023-02-28T16:19:58;11.70;69.00
69418;DHT22;56610;48.872;2.400;2023-02-28T16:22:24;11.60;69.20
69418;DHT22;56610;48.872;2.400;2023-02-28T16:24:49;11.50;69.60
69418;DHT22;56610;48.872;2.400;2023-02-28T16:27:33;11.60;69.70
69418;DHT22;56610;48.872;2.400;2023-02-28T16:30:01;11.40;69.90
69418;DHT22;56610;48.872;2.400;2023-02-28T16:32:35;11.30;69.90
69418;DHT22;56610;48.872;2.400;2023-02-28T16:35:02;11.10;70.00
69418;DHT22;56610;48.872;2.400;2023-02-28T16:37:28;11.10;70.00
69418;DHT22;56610;48.872;2.400;2023-02-28T16:39:53;11.10;69.90
69418;DHT22;56610;48.872;2.400;2023-02-28T16:42:27;10.90;70.30
69418;DHT22;56610;48.872;2.400;2023-02-28T16:44:54;11.10;70.30
69418;DHT22;56610;48.872;2.400;2023-02-28T16:47:21;11.10;69.90
69418;DHT22;56610;48.872;2.400;2023-02-28T16:49:47;11.00;69.90
69418;DHT22;56610;48.872;2.400;2023-02-28T16:52:13;10.90;70.00
69418;DHT22;56610;48.872;2.400;2023-02-28T16:54:40;10.90;69.60
69418;DHT22;56610;48.872;2.400;2023-02-28T16:57:13;10.90;69.40
69418;DHT22;56610;48.872;2.400;2023-02-28T16:59:41;10.80;69.30
69418;DHT22;56610;48.872;2.400;2023-02-28T17:02:13;10.90;69.20
69418;DHT22;56610;48.872;2.400;2023-02-28T17:04:39;10.70;69.10
69418;DHT22;56610;48.872;2.400;2023-02-28T17:07:04;10.70;69.50
69418;DHT22;56610;48.872;2.400;2023-02-28T17:09:30;10.60;69.00
69418;DHT22;56610;48.872;2.400;2023-02-28T17:11:56;10.40;69.40
69418;DHT22;56610;48.872;2.400;2023-02-28T17:14:22;10.70;69.20
69418;DHT22;56610;48.872;2.400;2023-02-28T17:16:48;10.70;69.20
69418;DHT22;56610;48.872;2.400;2023-02-28T17:19:15;10.70;69.60
69418;DHT22;56610;48.872;2.400;2023-02-28T17:21:42;10.60;69.70
69418;DHT22;56610;48.872;2.400;2023-02-28T17:24:09;10.70;69.50
69418;DHT22;56610;48.872;2.400;2023-02-28T17:26:41;10.80;69.10
69418;DHT22;56610;48.872;2.400;2023-02-28T17:29:15;10.80;69.10
69418;DHT22;56610;48.872;2.400;2023-02-28T17:31:41;10.70;68.60
69418;DHT22;56610;48.872;2.400;2023-02-28T17:34:07;10.60;69.00
69418;DHT22;56610;48.872;2.400;2023-02-28T17:36:34;10.80;68.90
69418;DHT22;56610;48.872;2.400;2023-02-28T17:39:01;10.80;69.00
69418;DHT22;56610;48.872;2.400;2023-02-28T17:41:27;10.70;68.90
69418;DHT22;56610;48.872;2.400;2023-02-28T17:43:55;10.70;69.10
69418;DHT22;56610;48.872;2.400;2023-02-28T17:46:23;10.60;69.50
69418;DHT22;56610;48.872;2.400;2023-02-28T17:48:50;10.50;69.70
69418;DHT22;56610;48.872;2.400;2023-02-28T17:51:17;10.50;69.80
69418;DHT22;56610;48.872;2.400;2023-02-28T17:53:46;10.60;70.00
69418;DHT22;56610;48.872;2.400;2023-02-28T17:56:20;10.60;70.10
69418;DHT22;56610;48.872;2.400;2023-02-28T17:58:46;10.60;70.20
69418;DHT22;56610;48.872;2.400;2023-02-28T18:01:12;10.50;70.30
69418;DHT22;56610;48.872;2.400;2023-02-28T18:03:38;10.30;70.40
69418;DHT22;56610;48.872;2.400;2023-02-28T18:06:05;10.40;70.80
69418;DHT22;56610;48.872;2.400;2023-02-28T18:08:32;10.20;70.30
69418;DHT22;56610;48.872;2.400;2023-02-28T18:10:58;10.30;70.90
69418;DHT22;56610;48.872;2.400;2023-02-28T18:13:24;10.30;70.60
69418;DHT22;56610;48.872;2.400;2023-02-28T18:15:50;10.50;70.60
69418;DHT22;56610;48.872;2.400;2023-02-28T18:18:15;10.40;70.20
69418;DHT22;56610;48.872;2.400;2023-02-28T18:20:41;10.20;70.80
69418;DHT22;56610;48.872;2.400;2023-02-28T18:23:07;10.30;70.90
69418;DHT22;56610;48.872;2.400;2023-02-28T18:25:32;10.20;70.70
69418;DHT22;56610;48.872;2.400;2023-02-28T18:27:58;10.40;70.80
69418;DHT22;56610;48.872;2.400;2023-02-28T18:30:28;10.70;70.70
69418;DHT22;56610;48.872;2.400;2023-02-28T18:33:00;10.70;70.50